Time;durP1;ratioP1;P1;durP2;ratioP2;P2;SDS_P1;SDS_P2;PMS_P1;PMS_P2;Temp;Humidity;BMP_temperature;BMP_pressure;BME280_temperature;BME280_humidity;BME280_pressure;Samples;Min_cycle;Max_cycle;Signal;HPM_P1;HPM_P2
2021/07/04 00:02:24;;;;;;;12.93;7.77;;;;;;;17.71;100.00;98720.91;10505252;28;20640;-82
2021/07/04 00:07:43;;;;;;;8.17;6.87;;;;;;;17.74;100.00;98722.78;10502715;28;20640;-82
2021/07/04 00:13:02;;;;;;;12.40;7.93;;;;;;;17.63;100.00;98725.97;10502979;28;20175;-81
2021/07/04 00:18:24;;;;;;;11.67;7.67;;;;;;;17.84;100.00;98716.81;10540380;28;20182;-82
2021/07/04 00:23:43;;;;;;;11.13;8.07;;;;;;;17.77;100.00;98717.06;10544129;28;20697;-82
2021/07/04 00:29:03;;;;;;;13.53;8.07;;;;;;;17.63;100.00;98703.72;10542794;28;20257;-82
2021/07/04 00:34:21;;;;;;;12.80;8.30;;;;;;;17.56;100.00;98705.97;10541879;28;20221;-82
2021/07/04 00:39:40;;;;;;;9.47;7.40;;;;;;;17.70;100.00;98711.00;10542496;28;20174;-82
2021/07/04 00:44:59;;;;;;;12.60;8.67;;;;;;;17.54;100.00;98702.09;10542005;28;20206;-82
2021/07/04 00:50:20;;;;;;;11.40;7.77;;;;;;;17.51;100.00;98703.00;10541671;28;20173;-83
2021/07/04 00:55:39;;;;;;;9.30;7.20;;;;;;;17.37;100.00;98697.97;10542547;28;20570;-82
2021/07/04 01:00:59;;;;;;;10.63;7.33;;;;;;;17.47;100.00;98699.59;10542660;28;20210;-81
2021/07/04 01:06:18;;;;;;;11.40;7.77;;;;;;;17.21;100.00;98703.69;10541264;28;20186;-82
2021/07/04 01:11:37;;;;;;;12.33;8.30;;;;;;;17.08;100.00;98689.09;10541154;28;20649;-82
2021/07/04 01:16:58;;;;;;;11.27;8.27;;;;;;;17.00;100.00;98685.78;10541156;28;20643;-82
2021/07/04 01:22:18;;;;;;;9.77;7.47;;;;;;;17.02;100.00;98683.31;10539159;28;20170;-82
2021/07/04 01:27:38;;;;;;;13.47;8.10;;;;;;;17.12;100.00;98698.06;10540631;28;20238;-81
2021/07/04 01:32:57;;;;;;;11.87;7.60;;;;;;;16.91;100.00;98701.59;10539486;28;20174;-82
2021/07/04 01:38:17;;;;;;;13.50;8.67;;;;;;;16.98;100.00;98695.81;10540146;28;20182;-82
2021/07/04 01:43:36;;;;;;;15.97;8.90;;;;;;;16.98;100.00;98698.56;10540419;28;20205;-82
2021/07/04 01:48:55;;;;;;;9.53;7.97;;;;;;;17.09;100.00;98699.75;10539288;28;20624;-82
2021/07/04 01:54:14;;;;;;;12.63;8.13;;;;;;;16.95;100.00;98699.47;10540366;28;20194;-82
2021/07/04 01:59:34;;;;;;;14.27;8.77;;;;;;;17.08;100.00;98691.88;10539107;28;20174;-82
2021/07/04 02:04:53;;;;;;;13.60;9.17;;;;;;;17.03;100.00;98684.09;10538085;28;20182;-82
2021/07/04 02:10:38;;;;;;;12.80;8.90;;;;;;;17.10;100.00;98683.84;10539220;28;20189;-82
2021/07/04 02:15:58;;;;;;;11.30;9.03;;;;;;;16.98;100.00;98676.34;10538407;28;20564;-82
2021/07/04 02:21:19;;;;;;;16.23;9.20;;;;;;;16.99;100.00;98681.44;10537302;28;20174;-82
2021/07/04 02:26:38;;;;;;;10.03;7.73;;;;;;;16.95;100.00;98680.00;10539708;28;20182;-82
2021/07/04 02:31:57;;;;;;;12.50;8.50;;;;;;;16.78;100.00;98670.31;10538043;28;20174;-81
2021/07/04 02:37:16;;;;;;;14.47;8.87;;;;;;;16.74;100.00;98666.88;10537465;28;20221;-82
2021/07/04 02:42:35;;;;;;;18.03;8.47;;;;;;;16.88;100.00;98689.38;10539262;28;20201;-82
2021/07/04 02:47:54;;;;;;;17.00;8.90;;;;;;;16.75;100.00;98681.53;10538018;28;20280;-82
2021/07/04 02:53:14;;;;;;;13.80;8.17;;;;;;;16.74;100.00;98691.88;10539593;28;20178;-81
2021/07/04 02:58:33;;;;;;;12.40;8.77;;;;;;;16.72;100.00;98696.34;10539821;28;20177;-82
2021/07/04 03:03:52;;;;;;;10.03;8.10;;;;;;;16.58;100.00;98699.59;10539323;28;20185;-83
2021/07/04 03:09:11;;;;;;;13.33;9.03;;;;;;;16.63;100.00;98694.25;10537729;28;20312;-82
2021/07/04 03:14:30;;;;;;;11.57;8.53;;;;;;;16.60;100.00;98702.69;10538522;28;20652;-82
2021/07/04 03:19:49;;;;;;;14.30;8.63;;;;;;;16.67;100.00;98699.66;10537673;28;20174;-82
2021/07/04 03:25:08;;;;;;;13.20;7.70;;;;;;;16.55;100.00;98700.50;10539135;28;20174;-82
2021/07/04 03:30:27;;;;;;;13.27;7.97;;;;;;;16.56;100.00;98694.47;10538268;28;20193;-82
2021/07/04 03:35:47;;;;;;;11.50;7.87;;;;;;;16.64;100.00;98704.13;10537117;28;20333;-82
2021/07/04 03:41:06;;;;;;;9.43;8.27;;;;;;;16.52;100.00;98693.81;10539722;28;20552;-82
2021/07/04 03:46:26;;;;;;;8.63;7.10;;;;;;;16.57;100.00;98696.03;10548208;28;20624;-82
2021/07/04 03:51:45;;;;;;;11.77;8.23;;;;;;;16.64;100.00;98690.25;10545253;28;20644;-82
2021/07/04 03:57:21;;;;;;;10.40;7.93;;;;;;;16.75;100.00;98700.97;10547407;28;20586;-81
2021/07/04 04:02:40;;;;;;;13.30;7.70;;;;;;;16.87;100.00;98696.19;10546464;28;20166;-82
2021/07/04 04:07:59;;;;;;;20.67;9.47;;;;;;;16.90;100.00;98688.94;10548350;28;20641;-82
2021/07/04 04:13:19;;;;;;;12.47;8.70;;;;;;;16.93;100.00;98699.94;10550342;28;20182;-82
2021/07/04 04:18:38;;;;;;;15.13;9.30;;;;;;;17.05;100.00;98701.09;10548661;28;20629;-82
2021/07/04 04:23:57;;;;;;;10.03;7.00;;;;;;;17.13;100.00;98699.63;10548323;28;20166;-81
2021/07/04 04:29:16;;;;;;;16.33;9.20;;;;;;;17.24;100.00;98706.34;10543865;28;20178;-81
2021/07/04 04:34:35;;;;;;;16.60;9.70;;;;;;;17.37;100.00;98712.63;10541754;28;20575;-81
2021/07/04 04:39:54;;;;;;;12.63;9.00;;;;;;;17.49;100.00;98706.25;10542199;28;20621;-81
2021/07/04 04:45:14;;;;;;;11.50;8.03;;;;;;;17.55;100.00;98701.63;10552973;28;20197;-81
2021/07/04 04:50:33;;;;;;;11.67;7.63;;;;;;;17.62;100.00;98709.72;10544765;28;20178;-81
2021/07/04 04:55:52;;;;;;;9.47;6.80;;;;;;;17.73;100.00;98716.41;10552371;28;20201;-81
2021/07/04 05:01:11;;;;;;;11.33;7.87;;;;;;;17.91;100.00;98710.19;10542634;28;20620;-82
2021/07/04 05:06:30;;;;;;;9.73;8.77;;;;;;;18.11;100.00;98713.34;10540232;28;20186;-82
2021/07/04 05:11:49;;;;;;;18.33;8.40;;;;;;;18.23;100.00;98715.31;10525334;28;20177;-82
2021/07/04 05:17:08;;;;;;;10.97;8.33;;;;;;;18.39;100.00;98709.47;10515236;28;20680;-82
2021/07/04 05:22:27;;;;;;;11.87;8.17;;;;;;;18.59;100.00;98702.25;10538397;28;20182;-83
2021/07/04 05:27:46;;;;;;;13.83;8.37;;;;;;;18.85;100.00;98695.94;10540557;28;20170;-82
2021/07/04 05:33:05;;;;;;;12.83;8.00;;;;;;;19.02;100.00;98694.41;10538875;28;20218;-81
2021/07/04 05:38:30;;;;;;;11.83;7.40;;;;;;;19.28;100.00;98690.84;10541735;28;20182;-82
2021/07/04 05:43:49;;;;;;;11.53;7.57;;;;;;;19.41;100.00;98683.09;10540636;28;20205;-82
2021/07/04 05:49:10;;;;;;;10.10;7.33;;;;;;;19.64;100.00;98681.63;10539104;28;20613;-82
2021/07/04 05:54:28;;;;;;;8.33;6.60;;;;;;;19.98;100.00;98670.06;10541099;28;20240;-82
2021/07/04 05:59:48;;;;;;;7.83;6.27;;;;;;;20.34;100.00;98671.47;10542035;28;20256;-82
2021/07/04 06:05:08;;;;;;;8.70;6.93;;;;;;;20.52;100.00;98671.34;10541192;28;20178;-81
2021/07/04 06:10:27;;;;;;;8.20;6.30;;;;;;;20.61;100.00;98659.34;10540585;28;20181;-82
2021/07/04 06:15:46;;;;;;;6.30;4.90;;;;;;;20.99;100.00;98658.13;10539296;28;20567;-82
2021/07/04 06:21:05;;;;;;;5.93;5.27;;;;;;;21.25;100.00;98652.78;10539202;28;20178;-82
2021/07/04 06:26:27;;;;;;;12.50;4.70;;;;;;;21.50;100.00;98650.19;10541534;28;20178;-82
2021/07/04 06:31:46;;;;;;;6.40;5.40;;;;;;;21.89;100.00;98644.00;10541347;28;20162;-82
2021/07/04 06:37:05;;;;;;;7.20;5.53;;;;;;;21.62;100.00;98643.56;10537456;28;20307;-82
2021/07/04 06:42:24;;;;;;;6.80;5.77;;;;;;;22.07;100.00;98635.38;10540980;28;20202;-81
2021/07/04 06:47:46;;;;;;;6.80;5.67;;;;;;;22.99;100.00;98634.34;10541341;28;20245;-82
2021/07/04 06:53:06;;;;;;;5.97;5.43;;;;;;;23.38;100.00;98633.53;10541101;28;20170;-83
2021/07/04 06:58:26;;;;;;;8.67;4.43;;;;;;;23.78;95.88;98630.63;10539006;28;20178;-83
2021/07/04 07:03:45;;;;;;;6.17;4.67;;;;;;;24.23;90.18;98630.44;10538192;28;20178;-83
2021/07/04 07:09:04;;;;;;;4.87;4.37;;;;;;;24.77;90.80;98623.59;10540021;28;20214;-83
2021/07/04 07:14:23;;;;;;;6.27;5.37;;;;;;;25.60;86.61;98626.16;10541957;28;20687;-83
2021/07/04 07:19:42;;;;;;;6.40;5.90;;;;;;;25.41;82.94;98636.34;10543467;28;20216;-82
2021/07/04 07:25:02;;;;;;;6.60;5.17;;;;;;;25.17;87.18;98636.03;10545059;28;20573;-82
2021/07/04 07:30:22;;;;;;;6.93;5.30;;;;;;;25.60;85.63;98622.53;10545261;28;20651;-83
2021/07/04 07:35:42;;;;;;;6.20;5.37;;;;;;;25.92;71.65;98619.75;10543303;28;20221;-83
2021/07/04 07:41:00;;;;;;;5.23;4.73;;;;;;;25.21;69.14;98611.22;10544146;28;20553;-83
2021/07/04 07:46:19;;;;;;;5.53;4.90;;;;;;;24.91;71.45;98602.91;10543870;28;20185;-83
2021/07/04 07:51:38;;;;;;;8.00;5.80;;;;;;;25.93;65.36;98600.78;10542754;28;20636;-83
2021/07/04 07:56:57;;;;;;;5.37;4.87;;;;;;;26.39;64.63;98606.66;10543884;28;20210;-83
2021/07/04 08:02:16;;;;;;;6.33;4.83;;;;;;;26.56;59.67;98594.00;10544882;28;20178;-84
2021/07/04 08:07:36;;;;;;;7.30;5.37;;;;;;;26.69;58.63;98595.00;10542519;28;20182;-84
2021/07/04 08:12:57;;;;;;;7.50;5.07;;;;;;;27.24;58.52;98585.50;10543368;28;20182;-84
2021/07/04 08:18:16;;;;;;;7.30;6.00;;;;;;;27.75;55.94;98580.50;10542408;28;20201;-84
2021/07/04 08:23:35;;;;;;;5.10;4.60;;;;;;;27.36;60.01;98575.66;10544202;28;20182;-84
2021/07/04 08:28:54;;;;;;;5.83;5.27;;;;;;;26.49;60.56;98585.34;10542733;28;20174;-83
2021/07/04 08:34:13;;;;;;;5.97;5.33;;;;;;;26.30;59.92;98584.31;10540677;28;20225;-84
2021/07/04 08:39:32;;;;;;;6.70;5.73;;;;;;;26.37;59.46;98572.50;10543017;28;20173;-84
2021/07/04 08:44:54;;;;;;;7.00;5.70;;;;;;;26.53;58.56;98572.50;10538695;28;20174;-84
2021/07/04 08:50:13;;;;;;;5.10;4.60;;;;;;;26.92;58.10;98568.19;10534230;28;20177;-84
2021/07/04 08:55:32;;;;;;;9.33;5.33;;;;;;;27.20;56.30;98563.19;10542245;28;20235;-84
2021/07/04 09:01:17;;;;;;;10.07;6.60;;;;;;;27.63;55.92;98564.94;10542703;28;20171;-85
2021/07/04 09:06:48;;;;;;;5.73;3.87;;;;;;;27.58;55.46;98560.06;10541117;28;20569;-83
2021/07/04 09:12:10;;;;;;;4.67;4.20;;;;;;;25.46;63.88;98567.97;10540499;28;20198;-84
2021/07/04 09:17:40;;;;;;;5.17;4.67;;;;;;;25.24;65.22;98558.75;10541225;28;20205;-83
2021/07/04 09:23:00;;;;;;;12.33;5.10;;;;;;;25.33;63.85;98558.50;10539666;28;20210;-82
2021/07/04 09:28:19;;;;;;;6.43;5.20;;;;;;;25.28;65.20;98548.00;10540301;28;20185;-82
2021/07/04 09:33:38;;;;;;;5.77;4.60;;;;;;;25.64;62.03;98544.19;10538624;28;20597;-81
2021/07/04 09:38:57;;;;;;;5.80;5.30;;;;;;;26.03;62.14;98542.84;10540355;28;20178;-81
2021/07/04 09:44:25;;;;;;;8.53;5.50;;;;;;;26.82;57.12;98535.91;10540466;28;20241;-82
2021/07/04 09:49:46;;;;;;;5.30;4.60;;;;;;;27.59;54.73;98524.09;10522639;28;20649;-81
2021/07/04 09:55:08;;;;;;;4.60;4.17;;;;;;;28.58;51.30;98529.50;10538982;28;20568;-84
2021/07/04 10:00:30;;;;;;;4.93;4.47;;;;;;;28.85;51.37;98517.84;10538777;28;20182;-83
2021/07/04 10:05:53;;;;;;;7.20;5.10;;;;;;;30.14;48.26;98514.72;10537509;28;20182;-85
2021/07/04 10:11:13;;;;;;;6.27;5.67;;;;;;;30.85;49.23;98511.16;10513000;28;20186;-85
2021/07/04 10:16:33;;;;;;;5.70;4.60;;;;;;;29.97;50.68;98499.31;10496730;28;20684;-82
2021/07/04 10:21:59;;;;;;;4.90;4.50;;;;;;;30.96;43.64;98493.09;10496438;28;20170;-85
2021/07/04 10:27:19;;;;;;;4.60;4.23;;;;;;;31.66;40.97;98487.03;10535531;28;20186;-85
2021/07/04 10:33:06;;;;;;;5.40;4.90;;;;;;;30.77;41.08;98475.47;10538933;28;20182;-83
2021/07/04 10:38:25;;;;;;;4.87;4.47;;;;;;;31.96;44.02;98470.97;10538279;28;20679;-84
2021/07/04 10:43:56;;;;;;;5.40;4.90;;;;;;;32.40;39.42;98468.97;10538104;28;20605;-84
2021/07/04 10:49:22;;;;;;;4.50;3.83;;;;;;;31.33;43.01;98458.66;10533101;28;20174;-85
2021/07/04 10:54:45;;;;;;;5.30;4.80;;;;;;;30.80;43.23;98454.47;10542726;28;20672;-84
2021/07/04 11:00:12;;;;;;;4.93;4.53;;;;;;;31.69;40.29;98443.28;10539290;28;20185;-83
2021/07/04 11:05:35;;;;;;;5.17;4.77;;;;;;;30.34;41.41;98438.19;10530198;28;20222;-84
2021/07/04 11:11:02;;;;;;;4.70;4.40;;;;;;;30.23;43.11;98421.38;10534342;28;20198;-84
2021/07/04 11:16:24;;;;;;;3.90;3.60;;;;;;;30.82;45.14;98398.63;10527433;28;20194;-83
2021/07/04 11:21:55;;;;;;;4.40;4.10;;;;;;;31.05;44.27;98401.72;10545324;28;20239;-84
2021/07/04 11:27:25;;;;;;;4.97;4.00;;;;;;;30.94;39.10;98399.91;10545522;28;20185;-83
2021/07/04 11:32:45;;;;;;;4.67;4.27;;;;;;;30.94;39.87;98399.91;10544717;28;20178;-86
2021/07/04 11:38:04;;;;;;;5.00;4.50;;;;;;;30.38;44.56;98410.22;10544075;28;20225;-83
2021/07/04 11:43:27;;;;;;;5.60;5.10;;;;;;;29.85;48.69;98402.28;10545364;28;20660;-83
2021/07/04 11:48:53;;;;;;;5.00;4.60;;;;;;;30.07;45.15;98399.03;10544404;28;20631;-84
2021/07/04 11:54:14;;;;;;;3.97;3.27;;;;;;;28.95;49.10;98402.88;10544803;28;20719;-84
2021/07/04 11:59:32;;;;;;;3.80;3.50;;;;;;;28.65;50.18;98390.97;10517522;28;20186;-84
2021/07/04 12:04:52;;;;;;;3.20;2.90;;;;;;;27.39;53.28;98388.91;10536381;28;20179;-84
2021/07/04 12:10:11;;;;;;;3.10;2.90;;;;;;;28.37;52.06;98376.44;10501888;28;20174;-83
2021/07/04 12:15:32;;;;;;;3.60;2.43;;;;;;;30.18;45.07;98376.88;10513330;28;20209;-84
2021/07/04 12:20:55;;;;;;;3.03;2.83;;;;;;;30.89;42.76;98363.09;10538575;28;20662;-84
2021/07/04 12:26:15;;;;;;;2.57;2.37;;;;;;;30.85;41.77;98360.59;10506388;28;20195;-84
2021/07/04 12:31:34;;;;;;;3.37;3.17;;;;;;;32.09;38.45;98345.66;10541887;28;20190;-85
2021/07/04 12:36:53;;;;;;;4.33;3.40;;;;;;;32.23;40.29;98346.28;10511817;28;20731;-84
2021/07/04 12:42:23;;;;;;;3.90;3.50;;;;;;;32.39;36.31;98345.00;10523778;28;20206;-85
2021/07/04 12:47:44;;;;;;;2.70;2.50;;;;;;;31.94;35.75;98331.31;10505367;28;20186;-84
2021/07/04 12:53:03;;;;;;;2.70;2.50;;;;;;;32.28;38.06;98317.63;10541732;28;20178;-84
2021/07/04 12:58:31;;;;;;;2.20;2.00;;;;;;;32.55;35.97;98310.31;10540971;28;20235;-85
2021/07/04 13:03:57;;;;;;;1.97;1.87;;;;;;;32.72;33.99;98311.31;10540376;28;20202;-83
2021/07/04 13:09:37;;;;;;;2.70;2.50;;;;;;;32.98;36.39;98301.63;10541197;28;20178;-84
2021/07/04 13:14:59;;;;;;;2.90;2.70;;;;;;;31.64;36.52;98308.41;10539338;28;20202;-84
2021/07/04 13:20:21;;;;;;;2.97;2.77;;;;;;;30.59;38.78;98316.59;10539762;28;20177;-83
2021/07/04 13:25:43;;;;;;;3.70;2.93;;;;;;;30.75;40.83;98307.69;10541551;28;20182;-84
2021/07/04 13:31:04;;;;;;;3.20;2.90;;;;;;;31.42;36.72;98305.41;10541370;28;20186;-85
2021/07/04 13:36:25;;;;;;;2.90;2.70;;;;;;;32.57;37.40;98290.56;10539201;28;20221;-85
2021/07/04 13:41:44;;;;;;;3.33;2.97;;;;;;;32.99;36.33;98286.06;10535462;28;20651;-85
2021/07/04 13:47:05;;;;;;;2.40;2.20;;;;;;;31.84;36.54;98270.56;10538320;28;20544;-84
2021/07/04 13:52:26;;;;;;;2.73;2.50;;;;;;;32.01;38.98;98255.84;10523438;28;20182;-85
2021/07/04 13:57:45;;;;;;;2.80;2.60;;;;;;;31.75;37.36;98256.88;10538840;28;20565;-84
2021/07/04 14:03:06;;;;;;;3.37;3.07;;;;;;;31.59;39.92;98254.53;10499986;28;20195;-85
2021/07/04 14:08:26;;;;;;;2.97;2.77;;;;;;;31.90;37.36;98251.25;10511865;28;20651;-84
2021/07/04 14:13:45;;;;;;;3.57;3.27;;;;;;;30.74;40.67;98269.22;10537687;28;20177;-85
2021/07/04 14:19:05;;;;;;;3.93;3.63;;;;;;;28.87;44.66;98282.28;10537706;28;20594;-85
2021/07/04 14:24:24;;;;;;;4.27;3.83;;;;;;;28.19;47.46;98288.72;10538513;28;20211;-84
2021/07/04 14:29:43;;;;;;;4.80;3.90;;;;;;;27.36;50.46;98308.03;10538186;28;20178;-83
2021/07/04 14:35:06;;;;;;;3.10;2.80;;;;;;;24.60;62.20;98380.84;10537305;28;20221;-82
2021/07/04 14:40:26;;;;;;;4.97;2.67;;;;;;;21.77;95.40;98384.69;10492611;28;20218;-83
2021/07/04 14:45:46;;;;;;;1.97;1.83;;;;;;;20.14;100.00;98394.75;10496989;28;20175;-81
2021/07/04 14:51:09;;;;;;;3.20;2.40;;;;;;;19.74;100.00;98381.72;10496198;28;20182;-83
2021/07/04 14:56:29;;;;;;;1.57;1.47;;;;;;;19.37;100.00;98384.00;10466656;28;20215;-82
2021/07/04 15:01:49;;;;;;;2.10;1.80;;;;;;;19.43;100.00;98387.66;10455525;28;20266;-83
2021/07/04 15:07:10;;;;;;;2.50;1.60;;;;;;;19.41;100.00;98401.34;10454209;28;20199;-84
2021/07/04 15:12:30;;;;;;;1.93;1.33;;;;;;;19.21;100.00;98424.69;10488217;28;20183;-82
2021/07/04 15:17:49;;;;;;;3.10;2.40;;;;;;;18.81;100.00;98461.22;10494745;28;20593;-81
2021/07/04 15:23:08;;;;;;;4.83;1.83;;;;;;;18.94;100.00;98464.56;10496088;28;20171;-79
2021/07/04 15:28:30;;;;;;;2.63;2.40;;;;;;;18.80;100.00;98442.94;10495211;28;20186;-79
2021/07/04 15:33:49;;;;;;;4.27;3.30;;;;;;;18.60;100.00;98428.75;10494779;28;20218;-79
2021/07/04 15:39:10;;;;;;;13.70;3.63;;;;;;;18.53;100.00;98423.50;10493063;28;20215;-80
2021/07/04 15:44:30;;;;;;;3.17;2.70;;;;;;;18.63;100.00;98427.03;10475532;28;20175;-80
2021/07/04 15:49:49;;;;;;;3.43;2.90;;;;;;;18.90;100.00;98422.13;10485369;28;20240;-79
2021/07/04 15:55:10;;;;;;;5.83;2.80;;;;;;;19.12;100.00;98439.44;10476886;28;20613;-79
2021/07/04 16:00:29;;;;;;;3.70;3.00;;;;;;;19.32;100.00;98445.22;10476608;28;20273;-78
2021/07/04 16:05:49;;;;;;;3.63;3.33;;;;;;;19.09;100.00;98445.94;10483141;28;20258;-78
2021/07/04 16:11:08;;;;;;;3.40;3.10;;;;;;;18.93;100.00;98435.16;10481806;28;20270;-78
2021/07/04 16:16:27;;;;;;;7.93;3.60;;;;;;;18.92;100.00;98432.84;10475585;28;20218;-76
2021/07/04 16:21:47;;;;;;;3.43;2.70;;;;;;;19.05;100.00;98399.94;10500220;28;20178;-78
2021/07/04 16:27:08;;;;;;;3.30;2.70;;;;;;;19.33;100.00;98369.47;10500714;28;20174;-77
2021/07/04 16:32:28;;;;;;;5.97;3.80;;;;;;;19.65;100.00;98374.22;10500159;28;20182;-78
2021/07/04 16:37:49;;;;;;;3.87;3.57;;;;;;;19.91;100.00;98369.63;10475479;28;20669;-77
2021/07/04 16:43:08;;;;;;;4.73;3.17;;;;;;;20.20;100.00;98359.31;10499834;28;20199;-77
2021/07/04 16:48:27;;;;;;;4.30;3.50;;;;;;;20.29;100.00;98356.41;10495280;28;20186;-78
2021/07/04 16:53:48;;;;;;;3.27;3.07;;;;;;;20.33;100.00;98364.59;10499495;28;20191;-77
2021/07/04 16:59:07;;;;;;;5.27;3.90;;;;;;;20.47;100.00;98361.06;10461801;28;20191;-78
2021/07/04 17:04:26;;;;;;;3.23;2.90;;;;;;;20.46;100.00;98387.47;10457076;28;20187;-78
2021/07/04 17:09:45;;;;;;;3.27;3.07;;;;;;;20.35;100.00;98396.44;10461900;28;20178;-78
2021/07/04 17:15:05;;;;;;;4.43;3.37;;;;;;;20.33;100.00;98398.91;10481328;28;20290;-78
2021/07/04 17:20:25;;;;;;;4.30;2.77;;;;;;;19.84;100.00;98391.56;10496578;28;20182;-79
2021/07/04 17:25:44;;;;;;;3.77;3.43;;;;;;;19.56;100.00;98396.59;10498722;28;20187;-79
2021/07/04 17:31:03;;;;;;;3.77;3.33;;;;;;;19.34;100.00;98414.84;10498754;28;20261;-79
2021/07/04 17:36:22;;;;;;;3.70;3.30;;;;;;;19.36;100.00;98415.91;10497569;28;20234;-78
2021/07/04 17:41:43;;;;;;;3.10;2.73;;;;;;;19.29;100.00;98421.09;10480328;28;20670;-78
2021/07/04 17:47:02;;;;;;;6.80;3.00;;;;;;;19.19;100.00;98430.75;10476942;28;20654;-79
2021/07/04 17:52:21;;;;;;;3.43;3.13;;;;;;;19.22;100.00;98429.03;10496741;28;20233;-78
2021/07/04 17:57:43;;;;;;;5.47;3.50;;;;;;;19.18;100.00;98434.00;10497155;28;20213;-78
2021/07/04 18:03:02;;;;;;;5.27;2.90;;;;;;;19.12;100.00;98455.38;10494808;28;20194;-79
2021/07/04 18:08:21;;;;;;;4.00;3.40;;;;;;;19.14;100.00;98453.69;10497828;28;20178;-78
2021/07/04 18:13:40;;;;;;;5.57;3.00;;;;;;;19.06;100.00;98458.00;10497768;28;20186;-78
2021/07/04 18:18:59;;;;;;;3.40;2.70;;;;;;;18.86;100.00;98459.81;10496704;28;20186;-78
2021/07/04 18:24:19;;;;;;;4.33;3.37;;;;;;;18.91;100.00;98457.13;10496538;28;20267;-79
2021/07/04 18:29:38;;;;;;;3.00;2.43;;;;;;;19.02;100.00;98454.63;10497700;28;20233;-77
2021/07/04 18:34:58;;;;;;;11.63;2.70;;;;;;;18.91;100.00;98454.34;10495830;28;20631;-78
2021/07/04 18:40:17;;;;;;;5.27;3.90;;;;;;;18.72;100.00;98452.88;10496882;28;20206;-79
2021/07/04 18:45:37;;;;;;;3.70;3.40;;;;;;;18.79;100.00;98448.97;10496897;28;20524;-78
2021/07/04 18:50:57;;;;;;;3.57;3.27;;;;;;;18.72;100.00;98457.66;10495904;28;20186;-79
2021/07/04 18:56:16;;;;;;;5.00;3.33;;;;;;;18.65;100.00;98456.00;10495696;28;20206;-79
2021/07/04 19:01:36;;;;;;;3.70;3.40;;;;;;;18.48;100.00;98454.00;10497472;28;20534;-79
2021/07/04 19:06:58;;;;;;;3.83;3.50;;;;;;;18.46;100.00;98456.47;10496184;28;20179;-78
2021/07/04 19:12:17;;;;;;;4.30;3.60;;;;;;;18.47;100.00;98456.03;10499042;28;20186;-78
2021/07/04 19:17:36;;;;;;;7.23;3.53;;;;;;;18.58;100.00;98459.06;10503463;28;20214;-79
2021/07/04 19:22:55;;;;;;;4.03;3.63;;;;;;;18.62;100.00;98465.28;10504439;28;20534;-79
2021/07/04 19:28:17;;;;;;;3.17;2.97;;;;;;;18.41;100.00;98466.22;10502687;28;20186;-79
2021/07/04 19:33:36;;;;;;;4.23;3.00;;;;;;;18.37;100.00;98478.00;10502534;28;20214;-79
2021/07/04 19:38:56;;;;;;;3.53;3.23;;;;;;;18.48;100.00;98493.78;10503909;28;20230;-79
2021/07/04 19:44:15;;;;;;;3.97;3.20;;;;;;;18.49;100.00;98497.31;10502165;28;20190;-79
2021/07/04 19:49:35;;;;;;;4.13;3.00;;;;;;;18.38;100.00;98516.50;10501060;28;20170;-78
2021/07/04 19:55:02;;;;;;;3.93;3.63;;;;;;;18.39;100.00;98517.31;10503376;28;20222;-78
2021/07/04 20:00:25;;;;;;;3.17;2.87;;;;;;;18.26;100.00;98511.09;10503109;28;20669;-79
2021/07/04 20:05:44;;;;;;;3.40;3.10;;;;;;;18.24;100.00;98525.50;10501551;28;20633;-80
2021/07/04 20:11:04;;;;;;;3.93;3.60;;;;;;;18.34;100.00;98532.63;10502621;28;20206;-80
2021/07/04 20:16:25;;;;;;;6.53;3.80;;;;;;;18.32;100.00;98526.72;10500995;28;20198;-79
2021/07/04 20:21:43;;;;;;;3.77;3.40;;;;;;;18.13;100.00;98535.50;10500250;28;20206;-79
2021/07/04 20:27:04;;;;;;;9.83;4.60;;;;;;;18.04;100.00;98530.72;10501082;28;20178;-79
2021/07/04 20:32:23;;;;;;;5.13;4.43;;;;;;;17.93;100.00;98541.50;10501218;28;20641;-79
2021/07/04 20:37:42;;;;;;;5.83;4.60;;;;;;;17.91;100.00;98543.22;10498292;28;20305;-79
2021/07/04 20:43:03;;;;;;;19.13;5.27;;;;;;;17.76;100.00;98543.00;10501257;28;20175;-79
2021/07/04 20:48:23;;;;;;;5.20;3.57;;;;;;;17.68;100.00;98546.56;10498587;28;20167;-79
2021/07/04 20:53:43;;;;;;;7.67;3.93;;;;;;;17.59;100.00;98552.09;10500846;28;20633;-78
2021/07/04 20:59:04;;;;;;;5.67;4.30;;;;;;;17.57;100.00;98546.19;10500682;28;20194;-79
2021/07/04 21:04:23;;;;;;;4.17;3.73;;;;;;;17.53;100.00;98556.69;10498422;28;20202;-79
2021/07/04 21:09:42;;;;;;;8.33;5.27;;;;;;;17.51;100.00;98556.38;10500711;28;20179;-79
2021/07/04 21:15:02;;;;;;;11.50;6.60;;;;;;;17.43;100.00;98557.91;10499145;28;20246;-79
2021/07/04 21:20:23;;;;;;;7.80;6.50;;;;;;;17.45;100.00;98558.19;10499012;28;20179;-81
2021/07/04 21:25:43;;;;;;;12.30;6.90;;;;;;;17.44;100.00;98559.44;10499848;28;20174;-79
2021/07/04 21:31:03;;;;;;;10.90;7.43;;;;;;;17.56;100.00;98572.47;10498683;28;20273;-79
2021/07/04 21:36:21;;;;;;;7.37;6.60;;;;;;;17.46;100.00;98579.22;10495791;28;20219;-79
2021/07/04 21:41:43;;;;;;;10.40;7.67;;;;;;;17.70;100.00;98580.22;10499336;28;20171;-80
2021/07/04 21:47:04;;;;;;;8.17;7.37;;;;;;;17.73;100.00;98582.88;10498189;28;20660;-80
2021/07/04 21:52:23;;;;;;;9.40;8.13;;;;;;;17.63;100.00;98591.66;10496631;28;20182;-80
2021/07/04 21:57:43;;;;;;;13.23;8.47;;;;;;;17.65;100.00;98603.09;10497977;28;20237;-79
2021/07/04 22:03:02;;;;;;;11.20;7.63;;;;;;;17.69;100.00;98598.94;10495992;28;20187;-78
2021/07/04 22:08:23;;;;;;;9.13;8.23;;;;;;;17.57;100.00;98607.38;10498424;28;20629;-79
2021/07/04 22:13:42;;;;;;;13.20;7.87;;;;;;;17.43;100.00;98601.59;10498304;28;20532;-78
2021/07/04 22:19:01;;;;;;;7.87;7.07;;;;;;;17.36;100.00;98602.66;10496050;28;20211;-79
2021/07/04 22:24:20;;;;;;;8.10;5.20;;;;;;;17.16;100.00;98601.44;10497954;28;20594;-79
2021/07/04 22:29:39;;;;;;;11.13;5.60;;;;;;;17.11;100.00;98613.91;10496742;28;20218;-79
2021/07/04 22:34:58;;;;;;;4.80;4.50;;;;;;;16.84;100.00;98622.06;10496148;28;20213;-78
2021/07/04 22:40:21;;;;;;;5.33;3.50;;;;;;;16.73;100.00;98622.88;10497465;28;20175;-79
2021/07/04 22:45:40;;;;;;;4.90;3.47;;;;;;;16.64;100.00;98620.03;10496988;28;20692;-79
2021/07/04 22:50:59;;;;;;;9.07;3.30;;;;;;;16.42;100.00;98621.97;10496229;28;20179;-79
2021/07/04 22:56:19;;;;;;;3.17;2.77;;;;;;;16.38;100.00;98621.34;10497318;28;20163;-79
2021/07/04 23:01:38;;;;;;;11.67;3.10;;;;;;;16.29;100.00;98610.91;10496899;28;20186;-79
2021/07/04 23:06:57;;;;;;;6.53;2.50;;;;;;;16.25;100.00;98603.91;10494439;28;20206;-79
2021/07/04 23:12:16;;;;;;;3.40;3.00;;;;;;;16.19;100.00;98619.56;10496854;28;20175;-79
2021/07/04 23:17:36;;;;;;;3.53;2.50;;;;;;;15.99;100.00;98636.47;10495968;28;20241;-79
2021/07/04 23:22:55;;;;;;;3.30;3.00;;;;;;;15.93;100.00;98639.50;10496885;28;20171;-79
2021/07/04 23:28:14;;;;;;;3.57;3.33;;;;;;;15.78;100.00;98639.16;10495424;28;20214;-79
2021/07/04 23:33:33;;;;;;;4.20;3.20;;;;;;;15.70;100.00;98631.50;10494399;28;20697;-78
2021/07/04 23:38:52;;;;;;;3.50;3.27;;;;;;;15.66;100.00;98628.84;10495512;28;20186;-79
2021/07/04 23:44:12;;;;;;;4.30;3.20;;;;;;;15.67;100.00;98633.16;10495505;28;20604;-78
2021/07/04 23:49:31;;;;;;;4.30;2.80;;;;;;;15.64;100.00;98619.41;10495225;28;20167;-79
2021/07/04 23:54:50;;;;;;;5.20;3.17;;;;;;;15.62;100.00;98619.84;10495897;28;20270;-80
